BAW492 EGLL-LXGB
Flight info
| Callsign | BAW492 |
|---|---|
| Flight time | 1h 44m |
| Altitude | 35000 |
| Route | GOGSI N621 SAM M195 MARUK N621 LELNA DCT NOVAN DCT DELOG/N0452F370 DCT CRISA DCT VULPE DCT MAR N864 PIMOS |
| Aircraft | A320/M-SDE3FGHIRWY/LB1 |
Departure
| Time | 2026-05-04 13:45 |
|---|---|
| Airport | London Heathrow Airport (EGLL) |
Arrival
| Time | 2026-05-04 15:30 |
|---|---|
| Airport | Gibraltar Airport (LXGB) |
| Time | Latitude | Longitude | Altitude | Speed | Heading |
|---|---|---|---|---|---|
| 2026-05-04 13:23 | 51.46897 | -0.45944 | 87 ft | 0 kts | 56° |
| 2026-05-04 13:35 | 51.46895 | -0.45948 | 87 ft | 2 kts | 56° |
| 2026-05-04 13:35 | 51.46874 | -0.45998 | 89 ft | 3 kts | 72° |
| 2026-05-04 13:35 | 51.46872 | -0.46027 | 88 ft | 3 kts | 115° |
| 2026-05-04 13:36 | 51.46880 | -0.46046 | 90 ft | 1 kts | 146° |
| 2026-05-04 13:36 | 51.46889 | -0.46056 | 88 ft | 1 kts | 146° |
| 2026-05-04 13:36 | 51.46890 | -0.46057 | 88 ft | 0 kts | 146° |
| 2026-05-04 13:39 | 51.46889 | -0.46056 | 87 ft | 1 kts | 146° |
| 2026-05-04 13:39 | 51.46885 | -0.46051 | 87 ft | 1 kts | 145° |
| 2026-05-04 13:39 | 51.46869 | -0.46034 | 88 ft | 4 kts | 145° |
| 2026-05-04 13:39 | 51.46840 | -0.46002 | 91 ft | 6 kts | 145° |
| 2026-05-04 13:40 | 51.46792 | -0.45985 | 88 ft | 8 kts | 181° |
| 2026-05-04 13:40 | 51.46749 | -0.45929 | 88 ft | 9 kts | 103° |
| 2026-05-04 13:40 | 51.46748 | -0.45916 | 88 ft | 0 kts | 97° |
| 2026-05-04 13:41 | 51.46749 | -0.45812 | 88 ft | 21 kts | 86° |
| 2026-05-04 13:41 | 51.46749 | -0.45569 | 87 ft | 23 kts | 89° |
| 2026-05-04 13:41 | 51.46750 | -0.45310 | 87 ft | 24 kts | 89° |
| 2026-05-04 13:42 | 51.46752 | -0.44790 | 87 ft | 24 kts | 90° |
| 2026-05-04 13:42 | 51.46753 | -0.44525 | 87 ft | 24 kts | 89° |
| 2026-05-04 13:42 | 51.46753 | -0.44255 | 87 ft | 24 kts | 90° |
| 2026-05-04 13:42 | 51.46745 | -0.44080 | 90 ft | 12 kts | 125° |
| 2026-05-04 13:43 | 51.46660 | -0.44056 | 87 ft | 13 kts | 179° |
| 2026-05-04 13:43 | 51.46561 | -0.44054 | 90 ft | 15 kts | 179° |
| 2026-05-04 13:43 | 51.46494 | -0.44145 | 86 ft | 15 kts | 264° |
| 2026-05-04 13:43 | 51.46493 | -0.44212 | 86 ft | 0 kts | 269° |
| 2026-05-04 13:44 | 51.46493 | -0.44216 | 86 ft | 3 kts | 269° |
| 2026-05-04 13:44 | 51.46492 | -0.44569 | 88 ft | 65 kts | 269° |
| 2026-05-04 13:45 | 51.46488 | -0.45615 | 86 ft | 120 kts | 270° |
| 2026-05-04 13:45 | 51.46485 | -0.47185 | 90 ft | 160 kts | 269° |
| 2026-05-04 13:45 | 51.46472 | -0.49030 | 506 ft | 165 kts | 270° |
| 2026-05-04 13:45 | 51.46440 | -0.50902 | 1052 ft | 169 kts | 270° |
| 2026-05-04 13:46 | 51.46400 | -0.52814 | 1478 ft | 180 kts | 270° |
| 2026-05-04 13:46 | 51.46370 | -0.54951 | 1729 ft | 202 kts | 270° |
| 2026-05-04 13:46 | 51.46343 | -0.57325 | 1965 ft | 226 kts | 270° |
| 2026-05-04 13:46 | 51.46322 | -0.59995 | 2295 ft | 251 kts | 270° |
| 2026-05-04 13:47 | 51.46214 | -0.62816 | 2949 ft | 262 kts | 259° |
| 2026-05-04 13:47 | 51.45781 | -0.65716 | 3808 ft | 265 kts | 256° |
| 2026-05-04 13:47 | 51.45457 | -0.68592 | 4683 ft | 267 kts | 268° |
| 2026-05-04 13:47 | 51.45435 | -0.71574 | 5548 ft | 269 kts | 269° |
| 2026-05-04 13:48 | 51.45418 | -0.74596 | 5918 ft | 271 kts | 269° |
| 2026-05-04 13:48 | 51.45376 | -0.77614 | 6044 ft | 272 kts | 263° |
| 2026-05-04 13:48 | 51.44886 | -0.80531 | 6815 ft | 272 kts | 244° |
| 2026-05-04 13:48 | 51.43852 | -0.83051 | 7626 ft | 273 kts | 226° |
| 2026-05-04 13:49 | 51.42429 | -0.85072 | 8436 ft | 275 kts | 221° |
| 2026-05-04 13:49 | 51.40973 | -0.87074 | 9229 ft | 277 kts | 216° |
| 2026-05-04 13:49 | 51.39376 | -0.88825 | 10007 ft | 280 kts | 214° |
| 2026-05-04 13:49 | 51.37720 | -0.90602 | 10377 ft | 297 kts | 214° |
| 2026-05-04 13:50 | 51.35937 | -0.92508 | 10552 ft | 319 kts | 214° |
| 2026-05-04 13:50 | 51.34077 | -0.94535 | 11051 ft | 327 kts | 214° |
| 2026-05-04 13:50 | 51.32196 | -0.96607 | 11677 ft | 331 kts | 214° |
| 2026-05-04 13:50 | 51.30290 | -0.98713 | 12320 ft | 334 kts | 214° |
| 2026-05-04 13:51 | 51.28367 | -1.00825 | 12959 ft | 337 kts | 214° |
| 2026-05-04 13:51 | 51.26433 | -1.02877 | 13616 ft | 340 kts | 213° |
| 2026-05-04 13:51 | 51.24439 | -1.04941 | 14207 ft | 343 kts | 213° |
| 2026-05-04 13:51 | 51.22517 | -1.06910 | 14756 ft | 345 kts | 212° |
| 2026-05-04 13:52 | 51.18435 | -1.11075 | 15868 ft | 351 kts | 212° |
| 2026-05-04 13:52 | 51.16370 | -1.13188 | 16422 ft | 354 kts | 212° |
| 2026-05-04 13:52 | 51.14294 | -1.15317 | 16991 ft | 356 kts | 212° |
| 2026-05-04 13:53 | 51.12207 | -1.17456 | 17543 ft | 359 kts | 212° |
| 2026-05-04 13:53 | 51.10100 | -1.19612 | 18076 ft | 361 kts | 211° |
| 2026-05-04 13:53 | 51.07975 | -1.21788 | 18595 ft | 364 kts | 211° |
| 2026-05-04 13:54 | 51.03692 | -1.26173 | 19611 ft | 369 kts | 212° |
| 2026-05-04 13:54 | 51.01556 | -1.28355 | 20180 ft | 371 kts | 212° |
| 2026-05-04 13:54 | 50.97265 | -1.32730 | 21166 ft | 375 kts | 212° |
| 2026-05-04 13:55 | 50.95005 | -1.35030 | 21666 ft | 377 kts | 212° |
| 2026-05-04 13:55 | 50.90592 | -1.39604 | 22577 ft | 381 kts | 213° |
| 2026-05-04 13:55 | 50.88380 | -1.41919 | 23048 ft | 382 kts | 213° |
| 2026-05-04 13:56 | 50.86152 | -1.44252 | 23510 ft | 384 kts | 213° |
| 2026-05-04 13:56 | 50.83919 | -1.46584 | 23906 ft | 386 kts | 213° |
| 2026-05-04 13:56 | 50.79440 | -1.51237 | 24678 ft | 389 kts | 212° |
| 2026-05-04 13:57 | 50.77174 | -1.53582 | 25066 ft | 390 kts | 212° |
| 2026-05-04 13:57 | 50.74901 | -1.55934 | 25464 ft | 392 kts | 212° |
| 2026-05-04 13:58 | 50.68029 | -1.63033 | 26613 ft | 395 kts | 212° |
| 2026-05-04 13:58 | 50.63406 | -1.67783 | 27348 ft | 398 kts | 211° |
| 2026-05-04 13:58 | 50.61081 | -1.70163 | 27706 ft | 399 kts | 211° |
| 2026-05-04 13:59 | 50.58748 | -1.72547 | 28073 ft | 401 kts | 211° |
| 2026-05-04 13:59 | 50.56405 | -1.74941 | 28442 ft | 402 kts | 211° |
| 2026-05-04 13:59 | 50.51731 | -1.79719 | 29140 ft | 405 kts | 211° |
| 2026-05-04 14:00 | 50.49362 | -1.82141 | 29492 ft | 407 kts | 211° |
| 2026-05-04 14:00 | 50.44607 | -1.87007 | 30226 ft | 408 kts | 211° |
| 2026-05-04 14:00 | 50.42225 | -1.89432 | 30594 ft | 408 kts | 211° |
| 2026-05-04 14:01 | 50.39843 | -1.91848 | 30927 ft | 408 kts | 210° |
| 2026-05-04 14:01 | 50.37455 | -1.94265 | 31251 ft | 409 kts | 211° |
| 2026-05-04 14:01 | 50.32662 | -1.99117 | 31885 ft | 411 kts | 211° |
| 2026-05-04 14:02 | 50.30288 | -2.01513 | 32204 ft | 412 kts | 211° |
| 2026-05-04 14:02 | 50.27874 | -2.03941 | 32533 ft | 413 kts | 209° |
| 2026-05-04 14:02 | 50.25326 | -2.05974 | 32846 ft | 412 kts | 200° |
| 2026-05-04 14:02 | 50.22592 | -2.07296 | 33156 ft | 411 kts | 191° |
| 2026-05-04 14:03 | 50.19757 | -2.07881 | 33468 ft | 412 kts | 184° |
| 2026-05-04 14:03 | 50.16895 | -2.08231 | 33769 ft | 413 kts | 184° |
| 2026-05-04 14:03 | 50.14030 | -2.08599 | 34069 ft | 414 kts | 184° |
| 2026-05-04 14:03 | 50.11154 | -2.08976 | 34327 ft | 415 kts | 185° |
| 2026-05-04 14:04 | 49.98232 | -2.10763 | 34986 ft | 424 kts | 191° |
| 2026-05-04 14:04 | 49.75886 | -2.21074 | 35110 ft | 419 kts | 196° |
| 2026-05-04 14:05 | 49.53716 | -2.31326 | 34944 ft | 422 kts | 196° |
| 2026-05-04 14:05 | 49.43208 | -2.36161 | 35051 ft | 417 kts | 196° |
| 2026-05-04 14:06 | 49.20685 | -2.46430 | 34954 ft | 424 kts | 195° |
| 2026-05-04 14:06 | 48.98189 | -2.56585 | 34970 ft | 420 kts | 195° |
| 2026-05-04 14:07 | 48.75775 | -2.66612 | 34991 ft | 424 kts | 195° |
| 2026-05-04 14:07 | 48.53056 | -2.76689 | 35005 ft | 427 kts | 195° |
| 2026-05-04 14:08 | 48.30191 | -2.86730 | 35006 ft | 428 kts | 195° |
| 2026-05-04 14:08 | 48.07351 | -2.96656 | 34992 ft | 427 kts | 195° |
| 2026-05-04 14:09 | 47.73204 | -3.11333 | 35009 ft | 428 kts | 195° |
| 2026-05-04 14:10 | 47.38962 | -3.25877 | 34992 ft | 425 kts | 195° |
| 2026-05-04 14:10 | 47.16180 | -3.35412 | 35006 ft | 427 kts | 195° |
| 2026-05-04 14:11 | 46.93311 | -3.44921 | 34996 ft | 427 kts | 195° |
| 2026-05-04 14:11 | 46.58866 | -3.59099 | 34996 ft | 430 kts | 195° |
| 2026-05-04 14:12 | 46.35889 | -3.68431 | 35007 ft | 432 kts | 195° |
| 2026-05-04 14:13 | 46.00195 | -3.74680 | 35020 ft | 430 kts | 186° |
| 2026-05-04 14:13 | 45.76430 | -3.78209 | 35016 ft | 428 kts | 186° |
| 2026-05-04 14:14 | 45.52759 | -3.81660 | 35015 ft | 427 kts | 186° |
| 2026-05-04 14:14 | 45.17293 | -3.86775 | 35013 ft | 427 kts | 187° |
| 2026-05-04 14:15 | 44.70158 | -3.93518 | 35022 ft | 427 kts | 187° |
| 2026-05-04 14:16 | 44.34684 | -3.98500 | 35030 ft | 427 kts | 187° |
| 2026-05-04 14:17 | 43.99136 | -4.02600 | 35030 ft | 427 kts | 187° |
| 2026-05-04 14:18 | 43.63601 | -4.06627 | 35057 ft | 427 kts | 187° |
| 2026-05-04 14:19 | 43.16212 | -4.11894 | 35055 ft | 427 kts | 187° |
| 2026-05-04 14:19 | 42.92719 | -4.14480 | 35040 ft | 426 kts | 188° |
| 2026-05-04 14:20 | 42.69048 | -4.17075 | 35027 ft | 426 kts | 188° |
| 2026-05-04 14:20 | 42.45407 | -4.19628 | 35015 ft | 426 kts | 188° |
| 2026-05-04 14:21 | 42.24634 | -4.21880 | 34998 ft | 425 kts | 188° |
| 2026-05-04 14:21 | 42.18731 | -4.22509 | 34995 ft | 426 kts | 188° |
| 2026-05-04 14:22 | 42.12828 | -4.23142 | 34997 ft | 425 kts | 189° |
| 2026-05-04 14:22 | 42.06964 | -4.23768 | 35002 ft | 425 kts | 189° |
| 2026-05-04 14:23 | 41.98127 | -4.24709 | 34998 ft | 425 kts | 189° |
| 2026-05-04 14:24 | 41.92218 | -4.25334 | 35004 ft | 427 kts | 189° |
| 2026-05-04 14:24 | 41.86302 | -4.25961 | 35006 ft | 426 kts | 189° |
| 2026-05-04 14:25 | 41.80390 | -4.26586 | 35006 ft | 426 kts | 189° |
| 2026-05-04 14:25 | 41.71575 | -4.27515 | 34998 ft | 425 kts | 189° |
| 2026-05-04 14:26 | 41.66679 | -4.28034 | 34995 ft | 425 kts | 189° |
| 2026-05-04 14:26 | 41.59787 | -4.28761 | 34988 ft | 425 kts | 189° |
| 2026-05-04 14:27 | 41.53895 | -4.29380 | 34984 ft | 425 kts | 189° |
| 2026-05-04 14:27 | 41.48036 | -4.29994 | 34981 ft | 425 kts | 189° |
| 2026-05-04 14:28 | 41.42141 | -4.30611 | 34981 ft | 425 kts | 189° |
| 2026-05-04 14:28 | 41.37195 | -4.31127 | 34980 ft | 425 kts | 189° |
| 2026-05-04 14:29 | 41.25432 | -4.32359 | 34990 ft | 425 kts | 190° |
| 2026-05-04 14:30 | 41.19529 | -4.32973 | 34990 ft | 426 kts | 190° |
| 2026-05-04 14:31 | 41.10669 | -4.33888 | 34990 ft | 425 kts | 190° |
| 2026-05-04 14:32 | 40.98868 | -4.35093 | 34986 ft | 425 kts | 190° |
| 2026-05-04 14:32 | 40.93000 | -4.35701 | 34987 ft | 425 kts | 191° |
| 2026-05-04 14:33 | 40.87108 | -4.36312 | 34988 ft | 425 kts | 191° |
| 2026-05-04 14:33 | 40.81215 | -4.36922 | 34983 ft | 424 kts | 191° |
| 2026-05-04 14:34 | 40.75328 | -4.37526 | 34985 ft | 424 kts | 191° |
| 2026-05-04 14:34 | 40.69438 | -4.38127 | 34982 ft | 424 kts | 191° |
| 2026-05-04 14:35 | 40.63555 | -4.38731 | 34986 ft | 424 kts | 191° |
| 2026-05-04 14:35 | 40.57705 | -4.39331 | 34984 ft | 424 kts | 191° |
| 2026-05-04 14:36 | 40.51822 | -4.39925 | 34978 ft | 424 kts | 191° |
| 2026-05-04 14:36 | 40.45934 | -4.40524 | 34977 ft | 424 kts | 191° |
| 2026-05-04 14:37 | 40.40054 | -4.41123 | 34973 ft | 424 kts | 191° |
| 2026-05-04 14:37 | 40.34175 | -4.41724 | 34973 ft | 423 kts | 191° |
| 2026-05-04 14:38 | 40.28306 | -4.42314 | 34971 ft | 423 kts | 191° |
| 2026-05-04 14:38 | 40.22440 | -4.42901 | 34965 ft | 422 kts | 191° |
| 2026-05-04 14:39 | 40.16583 | -4.43494 | 34962 ft | 422 kts | 191° |
| 2026-05-04 14:39 | 40.10768 | -4.44083 | 34964 ft | 422 kts | 191° |
| 2026-05-04 14:40 | 40.01998 | -4.44954 | 34962 ft | 421 kts | 191° |
| 2026-05-04 14:40 | 39.96154 | -4.45542 | 34954 ft | 421 kts | 191° |
| 2026-05-04 14:41 | 39.90311 | -4.46133 | 34963 ft | 421 kts | 191° |
| 2026-05-04 14:42 | 39.78635 | -4.47288 | 34975 ft | 421 kts | 191° |
| 2026-05-04 14:42 | 39.72795 | -4.47868 | 34983 ft | 421 kts | 191° |
| 2026-05-04 14:43 | 39.66969 | -4.48451 | 34983 ft | 420 kts | 191° |
| 2026-05-04 14:43 | 39.61186 | -4.49029 | 34983 ft | 420 kts | 191° |
| 2026-05-04 14:44 | 39.55362 | -4.49602 | 34985 ft | 419 kts | 191° |
| 2026-05-04 14:44 | 39.49546 | -4.50180 | 34986 ft | 419 kts | 191° |
| 2026-05-04 14:45 | 39.43734 | -4.50758 | 34988 ft | 418 kts | 191° |
| 2026-05-04 14:45 | 39.37933 | -4.51333 | 34989 ft | 418 kts | 191° |
| 2026-05-04 14:46 | 39.32134 | -4.51899 | 34991 ft | 417 kts | 191° |
| 2026-05-04 14:46 | 39.26344 | -4.52461 | 34994 ft | 417 kts | 191° |
| 2026-05-04 14:47 | 39.20598 | -4.53031 | 34998 ft | 417 kts | 191° |
| 2026-05-04 14:47 | 39.14824 | -4.53598 | 34998 ft | 416 kts | 191° |
| 2026-05-04 14:48 | 39.09051 | -4.54157 | 34999 ft | 416 kts | 191° |
| 2026-05-04 14:48 | 39.03280 | -4.54713 | 34996 ft | 415 kts | 191° |
| 2026-05-04 14:49 | 38.97519 | -4.55269 | 34998 ft | 415 kts | 192° |
| 2026-05-04 14:49 | 38.91787 | -4.55918 | 35000 ft | 412 kts | 194° |
| 2026-05-04 14:50 | 38.86182 | -4.57053 | 35002 ft | 409 kts | 197° |
| 2026-05-04 14:50 | 38.80592 | -4.58363 | 34998 ft | 409 kts | 197° |
| 2026-05-04 14:51 | 38.74981 | -4.59593 | 35006 ft | 410 kts | 197° |
| 2026-05-04 14:51 | 38.69351 | -4.60753 | 35005 ft | 410 kts | 196° |
| 2026-05-04 14:52 | 38.63725 | -4.61909 | 35003 ft | 409 kts | 196° |
| 2026-05-04 14:52 | 38.58103 | -4.63072 | 35003 ft | 409 kts | 196° |
| 2026-05-04 14:53 | 38.52476 | -4.64233 | 34998 ft | 409 kts | 197° |
| 2026-05-04 14:53 | 38.46860 | -4.65389 | 34999 ft | 409 kts | 197° |
| 2026-05-04 14:54 | 38.41280 | -4.66543 | 34998 ft | 409 kts | 197° |
| 2026-05-04 14:54 | 38.35667 | -4.67694 | 34995 ft | 409 kts | 197° |
| 2026-05-04 14:55 | 38.30047 | -4.68845 | 34995 ft | 409 kts | 197° |
| 2026-05-04 14:55 | 38.24433 | -4.70005 | 34995 ft | 409 kts | 197° |
| 2026-05-04 14:56 | 38.18813 | -4.71162 | 34999 ft | 409 kts | 197° |
| 2026-05-04 14:56 | 38.13198 | -4.72310 | 34999 ft | 409 kts | 197° |
| 2026-05-04 14:57 | 38.07574 | -4.73449 | 34997 ft | 409 kts | 197° |
| 2026-05-04 14:57 | 38.01954 | -4.74594 | 35000 ft | 409 kts | 197° |
| 2026-05-04 14:58 | 37.96374 | -4.75733 | 35003 ft | 409 kts | 197° |
| 2026-05-04 14:58 | 37.90759 | -4.76878 | 35006 ft | 409 kts | 197° |
| 2026-05-04 14:59 | 37.85144 | -4.78009 | 34668 ft | 407 kts | 197° |
| 2026-05-04 14:59 | 37.79558 | -4.79139 | 34191 ft | 406 kts | 197° |
| 2026-05-04 15:00 | 37.76772 | -4.79703 | 33946 ft | 404 kts | 197° |
| 2026-05-04 15:00 | 37.74001 | -4.80263 | 33666 ft | 402 kts | 197° |
| 2026-05-04 15:00 | 37.71244 | -4.80819 | 33394 ft | 401 kts | 197° |
| 2026-05-04 15:01 | 37.65759 | -4.81925 | 32852 ft | 397 kts | 198° |
| 2026-05-04 15:01 | 37.63073 | -4.82472 | 32594 ft | 396 kts | 197° |
| 2026-05-04 15:01 | 37.60355 | -4.83021 | 32334 ft | 394 kts | 197° |
| 2026-05-04 15:01 | 37.57654 | -4.83563 | 32058 ft | 392 kts | 197° |
| 2026-05-04 15:02 | 37.54977 | -4.84098 | 31595 ft | 388 kts | 197° |
| 2026-05-04 15:02 | 37.52316 | -4.84632 | 31110 ft | 385 kts | 197° |
| 2026-05-04 15:02 | 37.49676 | -4.85160 | 30630 ft | 383 kts | 197° |
| 2026-05-04 15:02 | 37.47050 | -4.85686 | 30154 ft | 381 kts | 197° |
| 2026-05-04 15:03 | 37.44437 | -4.86212 | 29630 ft | 378 kts | 198° |
| 2026-05-04 15:03 | 37.41850 | -4.86738 | 29168 ft | 375 kts | 198° |
| 2026-05-04 15:03 | 37.39291 | -4.87255 | 28727 ft | 371 kts | 198° |
| 2026-05-04 15:03 | 37.36754 | -4.87764 | 28274 ft | 367 kts | 197° |
| 2026-05-04 15:04 | 37.34236 | -4.88265 | 27846 ft | 364 kts | 197° |
| 2026-05-04 15:04 | 37.30290 | -4.89051 | 27168 ft | 361 kts | 197° |
| 2026-05-04 15:04 | 37.20498 | -4.91004 | 25539 ft | 352 kts | 197° |
| 2026-05-04 15:04 | 37.10926 | -4.92903 | 23930 ft | 345 kts | 196° |
| 2026-05-04 15:05 | 37.01368 | -4.93765 | 22164 ft | 346 kts | 185° |
| 2026-05-04 15:05 | 36.98161 | -4.93583 | 21584 ft | 343 kts | 185° |
| 2026-05-04 15:05 | 36.95785 | -4.93458 | 21144 ft | 341 kts | 185° |
| 2026-05-04 15:05 | 36.93416 | -4.93339 | 20693 ft | 340 kts | 185° |
| 2026-05-04 15:06 | 36.91056 | -4.93225 | 20247 ft | 339 kts | 185° |
| 2026-05-04 15:06 | 36.88703 | -4.93109 | 19803 ft | 338 kts | 185° |
| 2026-05-04 15:06 | 36.86352 | -4.92990 | 19354 ft | 338 kts | 184° |
| 2026-05-04 15:07 | 36.81642 | -4.92754 | 18468 ft | 338 kts | 184° |
| 2026-05-04 15:07 | 36.79295 | -4.92636 | 17985 ft | 338 kts | 184° |
| 2026-05-04 15:07 | 36.76979 | -4.92520 | 17527 ft | 337 kts | 184° |
| 2026-05-04 15:07 | 36.74649 | -4.92401 | 17090 ft | 335 kts | 184° |
| 2026-05-04 15:08 | 36.71660 | -4.92242 | 16512 ft | 333 kts | 184° |
| 2026-05-04 15:08 | 36.62447 | -4.91766 | 14734 ft | 330 kts | 183° |
| 2026-05-04 15:08 | 36.54532 | -4.91361 | 13138 ft | 330 kts | 182° |
| 2026-05-04 15:08 | 36.52251 | -4.91243 | 12776 ft | 327 kts | 182° |
| 2026-05-04 15:09 | 36.49984 | -4.91127 | 12351 ft | 325 kts | 182° |
| 2026-05-04 15:09 | 36.47729 | -4.91011 | 11905 ft | 324 kts | 182° |
| 2026-05-04 15:09 | 36.45486 | -4.90897 | 11378 ft | 318 kts | 182° |
| 2026-05-04 15:10 | 36.41236 | -4.90668 | 10606 ft | 294 kts | 182° |
| 2026-05-04 15:10 | 36.39251 | -4.90564 | 10255 ft | 288 kts | 182° |
| 2026-05-04 15:10 | 36.35273 | -4.90368 | 9980 ft | 287 kts | 183° |
| 2026-05-04 15:11 | 36.33261 | -4.90272 | 9538 ft | 291 kts | 182° |
| 2026-05-04 15:11 | 36.31237 | -4.90172 | 9168 ft | 290 kts | 182° |
| 2026-05-04 15:11 | 36.29233 | -4.90069 | 8765 ft | 286 kts | 182° |
| 2026-05-04 15:11 | 36.27259 | -4.89965 | 8375 ft | 283 kts | 182° |
| 2026-05-04 15:12 | 36.25294 | -4.89864 | 7994 ft | 282 kts | 182° |
| 2026-05-04 15:12 | 36.23358 | -4.89983 | 7546 ft | 274 kts | 199° |
| 2026-05-04 15:12 | 36.21679 | -4.90892 | 7298 ft | 258 kts | 219° |
| 2026-05-04 15:12 | 36.20451 | -4.92411 | 6971 ft | 244 kts | 239° |
| 2026-05-04 15:13 | 36.19671 | -4.94188 | 6670 ft | 233 kts | 245° |
| 2026-05-04 15:13 | 36.18935 | -4.95937 | 6364 ft | 225 kts | 245° |
| 2026-05-04 15:13 | 36.18221 | -4.97623 | 6023 ft | 217 kts | 245° |
| 2026-05-04 15:13 | 36.17528 | -4.99251 | 5684 ft | 211 kts | 245° |
| 2026-05-04 15:14 | 36.16852 | -5.00840 | 5334 ft | 207 kts | 246° |
| 2026-05-04 15:14 | 36.16192 | -5.02409 | 4989 ft | 204 kts | 250° |
| 2026-05-04 15:14 | 36.15847 | -5.04079 | 4639 ft | 199 kts | 269° |
| 2026-05-04 15:14 | 36.15823 | -5.05787 | 4291 ft | 198 kts | 271° |
| 2026-05-04 15:15 | 36.15821 | -5.05925 | 4266 ft | 198 kts | 271° |
| 2026-05-04 15:23 | 36.15828 | -5.07083 | 4093 ft | 198 kts | 271° |
| 2026-05-04 15:24 | 36.15772 | -5.10386 | 3435 ft | 183 kts | 269° |
| 2026-05-04 15:24 | 36.15704 | -5.13404 | 2729 ft | 169 kts | 269° |
| 2026-05-04 15:25 | 36.15682 | -5.14834 | 2379 ft | 165 kts | 270° |
| 2026-05-04 15:25 | 36.15648 | -5.16237 | 2025 ft | 162 kts | 269° |
| 2026-05-04 15:25 | 36.15603 | -5.17620 | 1671 ft | 159 kts | 268° |
| 2026-05-04 15:26 | 36.15545 | -5.20188 | 1499 ft | 140 kts | 268° |
| 2026-05-04 15:26 | 36.15521 | -5.21353 | 1493 ft | 131 kts | 268° |
| 2026-05-04 15:26 | 36.15495 | -5.23552 | 1501 ft | 126 kts | 269° |
| 2026-05-04 15:27 | 36.15478 | -5.24629 | 1508 ft | 125 kts | 267° |
| 2026-05-04 15:27 | 36.15428 | -5.26788 | 1324 ft | 126 kts | 265° |
| 2026-05-04 15:28 | 36.15333 | -5.28948 | 928 ft | 125 kts | 268° |
| 2026-05-04 15:28 | 36.15310 | -5.30028 | 739 ft | 125 kts | 268° |
| 2026-05-04 15:28 | 36.15229 | -5.32156 | 380 ft | 123 kts | 267° |
| 2026-05-04 15:29 | 36.15182 | -5.33235 | 183 ft | 128 kts | 269° |
| 2026-05-04 15:30 | 36.15101 | -5.35613 | 20 ft | 12 kts | 267° |
| 2026-05-04 15:30 | 36.15089 | -5.35930 | 19 ft | 8 kts | 38° |
| 2026-05-04 15:31 | 36.15099 | -5.35674 | 19 ft | 18 kts | 87° |
| 2026-05-04 15:31 | 36.15105 | -5.35509 | 20 ft | 20 kts | 87° |
| 2026-05-04 15:32 | 36.15123 | -5.34943 | 22 ft | 23 kts | 88° |
| 2026-05-04 15:32 | 36.15186 | -5.34677 | 21 ft | 11 kts | 4° |
| 2026-05-04 15:33 | 36.15234 | -5.34532 | 17 ft | 8 kts | 79° |
| 2026-05-04 15:34 | 36.15322 | -5.34527 | 17 ft | 1 kts | 356° |
| 2026-05-04 15:34 | 36.15323 | -5.34527 | 17 ft | 0 kts | 356° |